sensor_id;sensor_type;location;lat;lon;timestamp;temperature;humidity
59025;DHT22;44806;48.008;13.666;2022-09-17T00:01:23;12.50;99.90
59025;DHT22;44806;48.008;13.666;2022-09-17T00:03:53;12.60;99.90
59025;DHT22;44806;48.008;13.666;2022-09-17T00:06:28;12.50;99.90
59025;DHT22;44806;48.008;13.666;2022-09-17T00:08:58;12.60;99.90
59025;DHT22;44806;48.008;13.666;2022-09-17T00:11:29;12.60;99.90
59025;DHT22;44806;48.008;13.666;2022-09-17T00:13:58;12.50;99.90
59025;DHT22;44806;48.008;13.666;2022-09-17T00:16:28;12.20;99.90
59025;DHT22;44806;48.008;13.666;2022-09-17T00:18:56;12.20;99.90
59025;DHT22;44806;48.008;13.666;2022-09-17T00:21:26;12.20;99.90
59025;DHT22;44806;48.008;13.666;2022-09-17T00:23:55;12.20;99.90
59025;DHT22;44806;48.008;13.666;2022-09-17T00:26:24;12.00;99.90
59025;DHT22;44806;48.008;13.666;2022-09-17T00:28:53;12.10;99.90
59025;DHT22;44806;48.008;13.666;2022-09-17T00:31:21;12.00;99.90
59025;DHT22;44806;48.008;13.666;2022-09-17T00:33:49;12.10;99.90
59025;DHT22;44806;48.008;13.666;2022-09-17T00:36:17;12.00;99.90
59025;DHT22;44806;48.008;13.666;2022-09-17T00:38:49;12.00;99.90
59025;DHT22;44806;48.008;13.666;2022-09-17T00:41:17;12.00;99.90
59025;DHT22;44806;48.008;13.666;2022-09-17T00:43:47;12.00;99.90
59025;DHT22;44806;48.008;13.666;2022-09-17T00:46:25;12.00;99.90
59025;DHT22;44806;48.008;13.666;2022-09-17T00:49:00;11.90;99.90
59025;DHT22;44806;48.008;13.666;2022-09-17T00:51:31;11.90;99.90
59025;DHT22;44806;48.008;13.666;2022-09-17T00:54:09;11.90;99.90
59025;DHT22;44806;48.008;13.666;2022-09-17T00:56:41;11.90;99.90
59025;DHT22;44806;48.008;13.666;2022-09-17T00:59:10;11.90;99.90
59025;DHT22;44806;48.008;13.666;2022-09-17T01:01:38;12.00;99.90
59025;DHT22;44806;48.008;13.666;2022-09-17T01:04:05;12.00;99.90
59025;DHT22;44806;48.008;13.666;2022-09-17T01:06:38;12.00;99.90
59025;DHT22;44806;48.008;13.666;2022-09-17T01:09:24;12.00;99.90
59025;DHT22;44806;48.008;13.666;2022-09-17T01:12:02;12.00;99.90
59025;DHT22;44806;48.008;13.666;2022-09-17T01:14:46;12.00;99.90
59025;DHT22;44806;48.008;13.666;2022-09-17T01:17:27;12.00;99.90
59025;DHT22;44806;48.008;13.666;2022-09-17T01:20:25;11.90;99.90
59025;DHT22;44806;48.008;13.666;2022-09-17T01:23:08;11.90;99.90
59025;DHT22;44806;48.008;13.666;2022-09-17T01:25:49;11.60;99.90
59025;DHT22;44806;48.008;13.666;2022-09-17T01:28:31;11.60;99.90
59025;DHT22;44806;48.008;13.666;2022-09-17T01:33:59;11.60;99.90
59025;DHT22;44806;48.008;13.666;2022-09-17T01:36:41;11.60;99.90
59025;DHT22;44806;48.008;13.666;2022-09-17T01:39:16;11.60;99.90
59025;DHT22;44806;48.008;13.666;2022-09-17T01:41:51;11.60;99.90
59025;DHT22;44806;48.008;13.666;2022-09-17T01:44:25;11.60;99.90
59025;DHT22;44806;48.008;13.666;2022-09-17T01:47:02;11.60;99.90
59025;DHT22;44806;48.008;13.666;2022-09-17T01:49:32;11.60;99.90
59025;DHT22;44806;48.008;13.666;2022-09-17T01:52:03;11.40;99.90
59025;DHT22;44806;48.008;13.666;2022-09-17T01:54:35;11.50;99.90
59025;DHT22;44806;48.008;13.666;2022-09-17T01:57:06;11.50;99.90
59025;DHT22;44806;48.008;13.666;2022-09-17T01:59:37;11.50;99.90
59025;DHT22;44806;48.008;13.666;2022-09-17T02:02:11;11.50;99.90
59025;DHT22;44806;48.008;13.666;2022-09-17T02:04:44;11.40;99.90
59025;DHT22;44806;48.008;13.666;2022-09-17T02:07:18;11.40;99.90
59025;DHT22;44806;48.008;13.666;2022-09-17T02:09:50;11.30;99.90
59025;DHT22;44806;48.008;13.666;2022-09-17T02:12:24;11.40;99.90
59025;DHT22;44806;48.008;13.666;2022-09-17T02:14:57;11.40;99.90
59025;DHT22;44806;48.008;13.666;2022-09-17T02:17:29;11.40;99.90
59025;DHT22;44806;48.008;13.666;2022-09-17T02:20:00;11.40;99.90
59025;DHT22;44806;48.008;13.666;2022-09-17T02:22:32;11.40;99.90
59025;DHT22;44806;48.008;13.666;2022-09-17T02:25:07;11.40;99.90
59025;DHT22;44806;48.008;13.666;2022-09-17T02:27:48;11.40;99.90
59025;DHT22;44806;48.008;13.666;2022-09-17T02:30:18;11.40;99.90
59025;DHT22;44806;48.008;13.666;2022-09-17T02:32:48;11.40;99.90
59025;DHT22;44806;48.008;13.666;2022-09-17T02:35:16;11.40;99.90
59025;DHT22;44806;48.008;13.666;2022-09-17T02:37:44;11.50;99.90
59025;DHT22;44806;48.008;13.666;2022-09-17T02:40:14;11.50;99.90
59025;DHT22;44806;48.008;13.666;2022-09-17T02:42:53;11.50;99.90
59025;DHT22;44806;48.008;13.666;2022-09-17T02:45:37;11.50;99.90
59025;DHT22;44806;48.008;13.666;2022-09-17T02:48:16;11.60;99.90
59025;DHT22;44806;48.008;13.666;2022-09-17T02:53:44;11.50;99.90
59025;DHT22;44806;48.008;13.666;2022-09-17T02:56:24;11.60;99.90
59025;DHT22;44806;48.008;13.666;2022-09-17T02:59:03;11.60;99.90
59025;DHT22;44806;48.008;13.666;2022-09-17T03:01:38;11.60;99.90
59025;DHT22;44806;48.008;13.666;2022-09-17T03:04:09;11.60;99.90
59025;DHT22;44806;48.008;13.666;2022-09-17T03:06:39;11.60;99.90
59025;DHT22;44806;48.008;13.666;2022-09-17T03:09:07;11.60;99.90
59025;DHT22;44806;48.008;13.666;2022-09-17T03:11:34;11.60;99.90
59025;DHT22;44806;48.008;13.666;2022-09-17T03:14:02;11.70;99.90
59025;DHT22;44806;48.008;13.666;2022-09-17T03:16:30;11.60;99.90
59025;DHT22;44806;48.008;13.666;2022-09-17T03:18:58;11.60;99.90
59025;DHT22;44806;48.008;13.666;2022-09-17T03:21:32;11.60;99.90
59025;DHT22;44806;48.008;13.666;2022-09-17T03:24:00;11.60;99.90
59025;DHT22;44806;48.008;13.666;2022-09-17T03:26:27;11.60;99.90
59025;DHT22;44806;48.008;13.666;2022-09-17T03:28:55;11.60;99.90
59025;DHT22;44806;48.008;13.666;2022-09-17T03:31:24;11.70;99.90
59025;DHT22;44806;48.008;13.666;2022-09-17T03:33:54;11.60;99.90
59025;DHT22;44806;48.008;13.666;2022-09-17T03:36:24;11.40;99.90
59025;DHT22;44806;48.008;13.666;2022-09-17T03:38:54;11.40;99.90
59025;DHT22;44806;48.008;13.666;2022-09-17T03:41:22;11.30;99.90
59025;DHT22;44806;48.008;13.666;2022-09-17T03:43:50;11.40;99.90
59025;DHT22;44806;48.008;13.666;2022-09-17T03:46:20;11.30;99.90
59025;DHT22;44806;48.008;13.666;2022-09-17T03:48:48;11.20;99.90
59025;DHT22;44806;48.008;13.666;2022-09-17T03:51:17;11.20;99.90
59025;DHT22;44806;48.008;13.666;2022-09-17T03:53:46;11.30;99.90
59025;DHT22;44806;48.008;13.666;2022-09-17T03:56:18;11.30;99.90
59025;DHT22;44806;48.008;13.666;2022-09-17T03:58:50;11.30;99.90
59025;DHT22;44806;48.008;13.666;2022-09-17T04:01:21;11.30;99.90
59025;DHT22;44806;48.008;13.666;2022-09-17T04:03:48;11.30;99.90
59025;DHT22;44806;48.008;13.666;2022-09-17T04:06:20;11.20;99.90
59025;DHT22;44806;48.008;13.666;2022-09-17T04:08:48;11.20;99.90
59025;DHT22;44806;48.008;13.666;2022-09-17T04:11:17;11.20;99.90
59025;DHT22;44806;48.008;13.666;2022-09-17T04:13:44;11.20;99.90
59025;DHT22;44806;48.008;13.666;2022-09-17T04:16:15;11.20;99.90
59025;DHT22;44806;48.008;13.666;2022-09-17T04:18:47;11.10;99.90
59025;DHT22;44806;48.008;13.666;2022-09-17T04:21:20;11.20;99.90
59025;DHT22;44806;48.008;13.666;2022-09-17T04:23:49;11.20;99.90
59025;DHT22;44806;48.008;13.666;2022-09-17T04:26:18;11.20;99.90
59025;DHT22;44806;48.008;13.666;2022-09-17T04:28:46;11.30;99.90
59025;DHT22;44806;48.008;13.666;2022-09-17T04:31:14;11.30;99.90
59025;DHT22;44806;48.008;13.666;2022-09-17T04:33:44;11.30;99.90
59025;DHT22;44806;48.008;13.666;2022-09-17T04:36:15;11.30;99.90
59025;DHT22;44806;48.008;13.666;2022-09-17T04:38:46;11.20;99.90
59025;DHT22;44806;48.008;13.666;2022-09-17T04:41:18;11.10;99.90
59025;DHT22;44806;48.008;13.666;2022-09-17T04:43:46;11.10;99.90
59025;DHT22;44806;48.008;13.666;2022-09-17T04:46:18;11.00;99.90
59025;DHT22;44806;48.008;13.666;2022-09-17T04:48:46;11.00;99.90
59025;DHT22;44806;48.008;13.666;2022-09-17T04:51:14;11.00;99.90
59025;DHT22;44806;48.008;13.666;2022-09-17T04:53:43;11.00;99.90
59025;DHT22;44806;48.008;13.666;2022-09-17T04:56:11;10.80;99.90
59025;DHT22;44806;48.008;13.666;2022-09-17T04:58:43;10.80;99.90
59025;DHT22;44806;48.008;13.666;2022-09-17T05:01:11;10.80;99.90
59025;DHT22;44806;48.008;13.666;2022-09-17T05:03:41;11.00;99.90
59025;DHT22;44806;48.008;13.666;2022-09-17T05:06:08;10.80;99.90
59025;DHT22;44806;48.008;13.666;2022-09-17T05:08:39;11.00;99.90
59025;DHT22;44806;48.008;13.666;2022-09-17T05:11:09;10.80;99.90
59025;DHT22;44806;48.008;13.666;2022-09-17T05:13:43;10.70;99.90
59025;DHT22;44806;48.008;13.666;2022-09-17T05:16:22;10.80;99.90
59025;DHT22;44806;48.008;13.666;2022-09-17T05:18:50;10.80;99.90
59025;DHT22;44806;48.008;13.666;2022-09-17T05:21:19;10.90;99.90
59025;DHT22;44806;48.008;13.666;2022-09-17T05:23:47;11.00;99.90
59025;DHT22;44806;48.008;13.666;2022-09-17T05:26:14;10.80;99.90
59025;DHT22;44806;48.008;13.666;2022-09-17T05:28:46;10.80;99.90
59025;DHT22;44806;48.008;13.666;2022-09-17T05:31:14;10.70;99.90
59025;DHT22;44806;48.008;13.666;2022-09-17T05:33:48;10.70;99.90
59025;DHT22;44806;48.008;13.666;2022-09-17T05:36:18;10.70;99.90
59025;DHT22;44806;48.008;13.666;2022-09-17T05:38:48;10.80;99.90
59025;DHT22;44806;48.008;13.666;2022-09-17T05:41:17;10.70;99.90
59025;DHT22;44806;48.008;13.666;2022-09-17T05:43:49;10.80;99.90
59025;DHT22;44806;48.008;13.666;2022-09-17T05:46:25;10.80;99.90
59025;DHT22;44806;48.008;13.666;2022-09-17T05:48:58;10.70;99.90
59025;DHT22;44806;48.008;13.666;2022-09-17T05:51:26;10.70;99.90
59025;DHT22;44806;48.008;13.666;2022-09-17T05:53:54;10.70;99.90
59025;DHT22;44806;48.008;13.666;2022-09-17T05:56:22;10.80;99.90
59025;DHT22;44806;48.008;13.666;2022-09-17T05:58:56;10.60;99.90
59025;DHT22;44806;48.008;13.666;2022-09-17T06:01:25;10.60;99.90
59025;DHT22;44806;48.008;13.666;2022-09-17T06:03:55;10.70;99.90
59025;DHT22;44806;48.008;13.666;2022-09-17T06:06:23;10.60;99.90
59025;DHT22;44806;48.008;13.666;2022-09-17T06:09:00;10.60;99.90
59025;DHT22;44806;48.008;13.666;2022-09-17T06:11:28;10.50;99.90
59025;DHT22;44806;48.008;13.666;2022-09-17T06:13:57;10.50;99.90
59025;DHT22;44806;48.008;13.666;2022-09-17T06:16:30;10.60;99.90
59025;DHT22;44806;48.008;13.666;2022-09-17T06:19:00;10.70;99.90
59025;DHT22;44806;48.008;13.666;2022-09-17T06:21:35;10.70;99.90
59025;DHT22;44806;48.008;13.666;2022-09-17T06:24:04;10.60;99.90
59025;DHT22;44806;48.008;13.666;2022-09-17T06:26:32;10.60;99.90
59025;DHT22;44806;48.008;13.666;2022-09-17T06:29:01;10.60;99.90
59025;DHT22;44806;48.008;13.666;2022-09-17T06:31:29;10.50;99.90
59025;DHT22;44806;48.008;13.666;2022-09-17T06:33:58;10.50;99.90
59025;DHT22;44806;48.008;13.666;2022-09-17T06:36:27;10.60;99.90
59025;DHT22;44806;48.008;13.666;2022-09-17T06:38:54;10.60;99.90
59025;DHT22;44806;48.008;13.666;2022-09-17T06:41:23;10.70;99.90
59025;DHT22;44806;48.008;13.666;2022-09-17T06:43:52;10.70;99.90
59025;DHT22;44806;48.008;13.666;2022-09-17T06:46:22;10.80;99.90
59025;DHT22;44806;48.008;13.666;2022-09-17T06:48:52;10.80;99.90
59025;DHT22;44806;48.008;13.666;2022-09-17T06:51:25;10.90;99.90
59025;DHT22;44806;48.008;13.666;2022-09-17T06:54:00;10.80;99.90
59025;DHT22;44806;48.008;13.666;2022-09-17T06:56:27;10.80;99.90
59025;DHT22;44806;48.008;13.666;2022-09-17T06:58:58;10.80;99.90
59025;DHT22;44806;48.008;13.666;2022-09-17T07:01:27;10.90;99.90
59025;DHT22;44806;48.008;13.666;2022-09-17T07:03:59;10.70;99.90
59025;DHT22;44806;48.008;13.666;2022-09-17T07:06:27;10.70;99.90
59025;DHT22;44806;48.008;13.666;2022-09-17T07:09:00;10.80;99.90
59025;DHT22;44806;48.008;13.666;2022-09-17T07:11:29;10.80;99.90
59025;DHT22;44806;48.008;13.666;2022-09-17T07:13:57;10.70;99.90
59025;DHT22;44806;48.008;13.666;2022-09-17T07:16:27;10.60;99.90
59025;DHT22;44806;48.008;13.666;2022-09-17T07:19:01;10.70;99.90
59025;DHT22;44806;48.008;13.666;2022-09-17T07:21:32;10.80;99.90
59025;DHT22;44806;48.008;13.666;2022-09-17T07:24:01;10.70;99.90
59025;DHT22;44806;48.008;13.666;2022-09-17T07:26:28;10.50;99.90
59025;DHT22;44806;48.008;13.666;2022-09-17T07:28:59;10.50;99.90
59025;DHT22;44806;48.008;13.666;2022-09-17T07:31:28;10.70;99.90
59025;DHT22;44806;48.008;13.666;2022-09-17T07:33:58;10.70;99.90
59025;DHT22;44806;48.008;13.666;2022-09-17T07:36:26;10.70;99.90
59025;DHT22;44806;48.008;13.666;2022-09-17T07:38:54;10.80;99.90
59025;DHT22;44806;48.008;13.666;2022-09-17T07:41:27;10.70;99.90
59025;DHT22;44806;48.008;13.666;2022-09-17T07:43:57;10.60;99.90
59025;DHT22;44806;48.008;13.666;2022-09-17T07:46:28;10.60;99.90
59025;DHT22;44806;48.008;13.666;2022-09-17T07:49:01;10.60;99.90
59025;DHT22;44806;48.008;13.666;2022-09-17T07:51:29;10.60;99.90
59025;DHT22;44806;48.008;13.666;2022-09-17T07:53:58;10.60;99.90
59025;DHT22;44806;48.008;13.666;2022-09-17T07:56:31;10.70;99.90
59025;DHT22;44806;48.008;13.666;2022-09-17T07:59:01;10.80;99.90
59025;DHT22;44806;48.008;13.666;2022-09-17T08:01:33;10.90;99.90
59025;DHT22;44806;48.008;13.666;2022-09-17T08:04:02;11.00;99.90
59025;DHT22;44806;48.008;13.666;2022-09-17T08:06:31;11.10;99.90
59025;DHT22;44806;48.008;13.666;2022-09-17T08:09:03;11.20;99.90
59025;DHT22;44806;48.008;13.666;2022-09-17T08:11:38;11.20;99.90
59025;DHT22;44806;48.008;13.666;2022-09-17T08:14:13;11.00;99.90
59025;DHT22;44806;48.008;13.666;2022-09-17T08:16:43;11.10;99.90
59025;DHT22;44806;48.008;13.666;2022-09-17T08:19:12;11.20;99.90
59025;DHT22;44806;48.008;13.666;2022-09-17T08:21:40;11.20;99.90
59025;DHT22;44806;48.008;13.666;2022-09-17T08:24:07;11.20;99.90
59025;DHT22;44806;48.008;13.666;2022-09-17T08:26:35;11.30;99.90
59025;DHT22;44806;48.008;13.666;2022-09-17T08:29:06;11.10;99.90
59025;DHT22;44806;48.008;13.666;2022-09-17T08:31:41;11.30;99.90
59025;DHT22;44806;48.008;13.666;2022-09-17T08:34:19;11.40;99.90
59025;DHT22;44806;48.008;13.666;2022-09-17T08:36:47;11.30;99.90
59025;DHT22;44806;48.008;13.666;2022-09-17T08:39:17;11.40;99.90
59025;DHT22;44806;48.008;13.666;2022-09-17T08:41:51;11.30;99.90
59025;DHT22;44806;48.008;13.666;2022-09-17T08:44:29;11.30;99.90
59025;DHT22;44806;48.008;13.666;2022-09-17T08:46:59;11.30;99.90
59025;DHT22;44806;48.008;13.666;2022-09-17T08:49:40;11.50;99.90
59025;DHT22;44806;48.008;13.666;2022-09-17T08:52:50;11.60;99.90
59025;DHT22;44806;48.008;13.666;2022-09-17T08:55:29;11.60;99.90
59025;DHT22;44806;48.008;13.666;2022-09-17T09:01:15;11.70;99.90
59025;DHT22;44806;48.008;13.666;2022-09-17T09:03:58;11.60;99.90
59025;DHT22;44806;48.008;13.666;2022-09-17T09:06:33;11.70;99.90
59025;DHT22;44806;48.008;13.666;2022-09-17T09:09:03;11.80;99.90
59025;DHT22;44806;48.008;13.666;2022-09-17T09:11:34;11.90;99.90
59025;DHT22;44806;48.008;13.666;2022-09-17T09:14:09;11.90;99.90
59025;DHT22;44806;48.008;13.666;2022-09-17T09:16:41;11.80;99.90
59025;DHT22;44806;48.008;13.666;2022-09-17T09:19:22;11.80;99.90
59025;DHT22;44806;48.008;13.666;2022-09-17T09:22:13;11.80;99.90
59025;DHT22;44806;48.008;13.666;2022-09-17T09:24:58;11.90;99.90
59025;DHT22;44806;48.008;13.666;2022-09-17T09:27:39;11.80;99.90
59025;DHT22;44806;48.008;13.666;2022-09-17T09:30:10;11.90;99.90
59025;DHT22;44806;48.008;13.666;2022-09-17T09:32:50;12.10;99.90
59025;DHT22;44806;48.008;13.666;2022-09-17T09:35:23;12.10;99.90
59025;DHT22;44806;48.008;13.666;2022-09-17T09:38:00;12.10;99.90
59025;DHT22;44806;48.008;13.666;2022-09-17T09:40:36;12.00;99.90
59025;DHT22;44806;48.008;13.666;2022-09-17T09:43:13;12.00;99.90
59025;DHT22;44806;48.008;13.666;2022-09-17T09:45:57;11.80;99.90
59025;DHT22;44806;48.008;13.666;2022-09-17T09:48:36;11.90;99.90
59025;DHT22;44806;48.008;13.666;2022-09-17T09:51:17;11.90;99.90
59025;DHT22;44806;48.008;13.666;2022-09-17T09:54:08;12.00;99.90
59025;DHT22;44806;48.008;13.666;2022-09-17T09:56:55;12.10;99.90
59025;DHT22;44806;48.008;13.666;2022-09-17T09:59:27;12.30;99.90
59025;DHT22;44806;48.008;13.666;2022-09-17T10:01:56;12.50;99.90
59025;DHT22;44806;48.008;13.666;2022-09-17T10:04:25;12.70;99.90
59025;DHT22;44806;48.008;13.666;2022-09-17T10:06:59;12.90;99.90
59025;DHT22;44806;48.008;13.666;2022-09-17T10:09:30;13.10;99.90
59025;DHT22;44806;48.008;13.666;2022-09-17T10:12:16;13.10;99.90
59025;DHT22;44806;48.008;13.666;2022-09-17T10:14:47;12.90;98.60
59025;DHT22;44806;48.008;13.666;2022-09-17T10:17:18;12.90;97.80
59025;DHT22;44806;48.008;13.666;2022-09-17T10:22:32;13.10;97.60
59025;DHT22;44806;48.008;13.666;2022-09-17T10:25:06;13.00;97.20
59025;DHT22;44806;48.008;13.666;2022-09-17T10:27:34;12.90;97.70
59025;DHT22;44806;48.008;13.666;2022-09-17T10:30:13;12.70;98.20
59025;DHT22;44806;48.008;13.666;2022-09-17T10:32:45;13.00;98.60
59025;DHT22;44806;48.008;13.666;2022-09-17T10:35:32;12.90;96.80
59025;DHT22;44806;48.008;13.666;2022-09-17T10:38:00;13.00;97.20
59025;DHT22;44806;48.008;13.666;2022-09-17T10:40:30;12.60;95.50
59025;DHT22;44806;48.008;13.666;2022-09-17T10:43:20;12.60;97.60
59025;DHT22;44806;48.008;13.666;2022-09-17T10:45:58;12.60;96.90
59025;DHT22;44806;48.008;13.666;2022-09-17T10:48:29;12.50;96.60
59025;DHT22;44806;48.008;13.666;2022-09-17T10:51:01;12.50;99.40
59025;DHT22;44806;48.008;13.666;2022-09-17T10:53:37;12.50;98.60
59025;DHT22;44806;48.008;13.666;2022-09-17T10:56:27;12.50;97.60
59025;DHT22;44806;48.008;13.666;2022-09-17T10:59:07;12.40;98.60
59025;DHT22;44806;48.008;13.666;2022-09-17T11:01:55;12.50;98.40
59025;DHT22;44806;48.008;13.666;2022-09-17T11:04:40;12.50;99.00
59025;DHT22;44806;48.008;13.666;2022-09-17T11:07:31;12.60;98.60
59025;DHT22;44806;48.008;13.666;2022-09-17T11:10:11;12.70;99.30
59025;DHT22;44806;48.008;13.666;2022-09-17T11:12:50;12.80;97.70
59025;DHT22;44806;48.008;13.666;2022-09-17T11:15:32;12.50;96.60
59025;DHT22;44806;48.008;13.666;2022-09-17T11:18:31;12.50;97.80
59025;DHT22;44806;48.008;13.666;2022-09-17T11:21:18;12.30;98.70
59025;DHT22;44806;48.008;13.666;2022-09-17T11:27:04;12.30;99.00
59025;DHT22;44806;48.008;13.666;2022-09-17T11:29:51;12.20;99.80
59025;DHT22;44806;48.008;13.666;2022-09-17T11:32:36;11.90;99.90
59025;DHT22;44806;48.008;13.666;2022-09-17T11:35:11;11.90;99.90
59025;DHT22;44806;48.008;13.666;2022-09-17T11:37:45;11.80;99.90
59025;DHT22;44806;48.008;13.666;2022-09-17T11:40:20;11.60;99.90
59025;DHT22;44806;48.008;13.666;2022-09-17T11:43:01;11.60;99.90
59025;DHT22;44806;48.008;13.666;2022-09-17T11:45:43;11.40;99.90
59025;DHT22;44806;48.008;13.666;2022-09-17T11:48:17;11.20;99.90
59025;DHT22;44806;48.008;13.666;2022-09-17T11:50:54;11.10;99.90
59025;DHT22;44806;48.008;13.666;2022-09-17T11:53:29;10.80;99.90
59025;DHT22;44806;48.008;13.666;2022-09-17T11:56:04;10.90;99.90
59025;DHT22;44806;48.008;13.666;2022-09-17T11:58:41;11.00;99.90
59025;DHT22;44806;48.008;13.666;2022-09-17T12:01:15;10.90;99.90
59025;DHT22;44806;48.008;13.666;2022-09-17T12:03:50;10.80;99.90
59025;DHT22;44806;48.008;13.666;2022-09-17T12:06:31;10.90;99.90
59025;DHT22;44806;48.008;13.666;2022-09-17T12:09:11;10.80;99.90
59025;DHT22;44806;48.008;13.666;2022-09-17T12:11:55;10.60;99.90
59025;DHT22;44806;48.008;13.666;2022-09-17T12:14:35;10.60;99.90
59025;DHT22;44806;48.008;13.666;2022-09-17T12:17:13;10.40;99.90
59025;DHT22;44806;48.008;13.666;2022-09-17T12:19:43;10.50;99.90
59025;DHT22;44806;48.008;13.666;2022-09-17T12:22:20;10.60;99.90
59025;DHT22;44806;48.008;13.666;2022-09-17T12:24:57;10.70;99.90
59025;DHT22;44806;48.008;13.666;2022-09-17T12:27:35;10.70;99.90
59025;DHT22;44806;48.008;13.666;2022-09-17T12:30:14;10.80;99.90
59025;DHT22;44806;48.008;13.666;2022-09-17T12:33:07;10.70;99.90
59025;DHT22;44806;48.008;13.666;2022-09-17T12:36:08;10.90;99.90
59025;DHT22;44806;48.008;13.666;2022-09-17T12:39:07;10.80;99.90
59025;DHT22;44806;48.008;13.666;2022-09-17T12:41:44;10.80;99.90
59025;DHT22;44806;48.008;13.666;2022-09-17T12:44:31;10.80;99.90
59025;DHT22;44806;48.008;13.666;2022-09-17T12:47:27;10.90;99.90
59025;DHT22;44806;48.008;13.666;2022-09-17T12:50:16;10.70;99.90
59025;DHT22;44806;48.008;13.666;2022-09-17T12:52:54;10.40;99.90
59025;DHT22;44806;48.008;13.666;2022-09-17T12:55:39;10.40;99.90
59025;DHT22;44806;48.008;13.666;2022-09-17T12:58:24;10.50;99.90
59025;DHT22;44806;48.008;13.666;2022-09-17T13:01:00;10.40;99.90
59025;DHT22;44806;48.008;13.666;2022-09-17T13:03:32;10.20;99.90
59025;DHT22;44806;48.008;13.666;2022-09-17T13:06:34;10.20;99.90
59025;DHT22;44806;48.008;13.666;2022-09-17T13:09:35;10.10;99.90
59025;DHT22;44806;48.008;13.666;2022-09-17T13:12:20;10.30;99.90
59025;DHT22;44806;48.008;13.666;2022-09-17T13:18:07;10.70;99.90
59025;DHT22;44806;48.008;13.666;2022-09-17T13:20:50;10.80;99.90
59025;DHT22;44806;48.008;13.666;2022-09-17T13:23:41;11.00;99.90
59025;DHT22;44806;48.008;13.666;2022-09-17T13:26:11;10.90;99.90
59025;DHT22;44806;48.008;13.666;2022-09-17T13:28:47;11.00;99.90
59025;DHT22;44806;48.008;13.666;2022-09-17T13:31:45;10.90;99.90
59025;DHT22;44806;48.008;13.666;2022-09-17T13:34:27;11.00;99.90
59025;DHT22;44806;48.008;13.666;2022-09-17T13:36:57;11.20;99.90
59025;DHT22;44806;48.008;13.666;2022-09-17T13:39:39;11.30;99.90
59025;DHT22;44806;48.008;13.666;2022-09-17T13:42:15;11.30;99.90
59025;DHT22;44806;48.008;13.666;2022-09-17T13:45:02;11.40;99.90
59025;DHT22;44806;48.008;13.666;2022-09-17T13:47:31;11.40;99.90
59025;DHT22;44806;48.008;13.666;2022-09-17T13:50:24;11.30;99.90
59025;DHT22;44806;48.008;13.666;2022-09-17T13:52:56;11.30;99.90
59025;DHT22;44806;48.008;13.666;2022-09-17T13:55:35;11.50;99.90
59025;DHT22;44806;48.008;13.666;2022-09-17T13:58:07;11.30;99.90
59025;DHT22;44806;48.008;13.666;2022-09-17T14:00:50;11.40;99.90
59025;DHT22;44806;48.008;13.666;2022-09-17T14:03:48;11.40;99.90
59025;DHT22;44806;48.008;13.666;2022-09-17T14:06:49;11.40;99.90
59025;DHT22;44806;48.008;13.666;2022-09-17T14:09:49;11.40;99.90
59025;DHT22;44806;48.008;13.666;2022-09-17T14:12:53;11.40;99.90
59025;DHT22;44806;48.008;13.666;2022-09-17T14:15:56;11.20;99.90
59025;DHT22;44806;48.008;13.666;2022-09-17T14:18:37;11.30;99.90
59025;DHT22;44806;48.008;13.666;2022-09-17T14:21:14;11.50;99.90
59025;DHT22;44806;48.008;13.666;2022-09-17T14:23:54;11.60;99.90
59025;DHT22;44806;48.008;13.666;2022-09-17T14:26:35;11.70;99.90
59025;DHT22;44806;48.008;13.666;2022-09-17T14:29:25;11.70;99.90
59025;DHT22;44806;48.008;13.666;2022-09-17T14:31:56;11.70;99.90
59025;DHT22;44806;48.008;13.666;2022-09-17T14:34:27;11.70;99.90
59025;DHT22;44806;48.008;13.666;2022-09-17T14:36:58;11.60;99.90
59025;DHT22;44806;48.008;13.666;2022-09-17T14:39:35;11.80;99.90
59025;DHT22;44806;48.008;13.666;2022-09-17T14:42:14;12.10;99.90
59025;DHT22;44806;48.008;13.666;2022-09-17T14:44:53;12.00;99.90
59025;DHT22;44806;48.008;13.666;2022-09-17T14:47:21;12.00;99.90
59025;DHT22;44806;48.008;13.666;2022-09-17T14:49:52;11.90;99.90
59025;DHT22;44806;48.008;13.666;2022-09-17T14:52:28;11.90;99.90
59025;DHT22;44806;48.008;13.666;2022-09-17T14:55:12;11.80;99.90
59025;DHT22;44806;48.008;13.666;2022-09-17T14:57:43;11.40;99.90
59025;DHT22;44806;48.008;13.666;2022-09-17T15:00:22;11.40;99.90
59025;DHT22;44806;48.008;13.666;2022-09-17T15:02:51;11.40;99.90
59025;DHT22;44806;48.008;13.666;2022-09-17T15:05:28;11.40;99.90
59025;DHT22;44806;48.008;13.666;2022-09-17T15:08:22;11.30;99.90
59025;DHT22;44806;48.008;13.666;2022-09-17T15:10:59;11.20;99.90
59025;DHT22;44806;48.008;13.666;2022-09-17T15:13:30;11.30;99.90
59025;DHT22;44806;48.008;13.666;2022-09-17T15:16:01;11.30;99.90
59025;DHT22;44806;48.008;13.666;2022-09-17T15:18:38;11.40;99.90
59025;DHT22;44806;48.008;13.666;2022-09-17T15:21:17;11.40;99.90
59025;DHT22;44806;48.008;13.666;2022-09-17T15:23:51;11.50;99.90
59025;DHT22;44806;48.008;13.666;2022-09-17T15:26:30;11.60;99.90
59025;DHT22;44806;48.008;13.666;2022-09-17T15:29:02;11.60;99.90
59025;DHT22;44806;48.008;13.666;2022-09-17T15:31:33;11.60;99.90
59025;DHT22;44806;48.008;13.666;2022-09-17T15:34:01;11.70;99.90
59025;DHT22;44806;48.008;13.666;2022-09-17T15:36:28;11.70;99.90
59025;DHT22;44806;48.008;13.666;2022-09-17T15:38:57;11.70;99.90
59025;DHT22;44806;48.008;13.666;2022-09-17T15:41:31;11.70;99.90
59025;DHT22;44806;48.008;13.666;2022-09-17T15:44:18;11.90;99.90
59025;DHT22;44806;48.008;13.666;2022-09-17T15:46:53;11.80;99.90
59025;DHT22;44806;48.008;13.666;2022-09-17T15:49:33;11.70;99.90
59025;DHT22;44806;48.008;13.666;2022-09-17T15:52:34;11.90;99.90
59025;DHT22;44806;48.008;13.666;2022-09-17T15:55:03;12.00;99.90
59025;DHT22;44806;48.008;13.666;2022-09-17T15:57:34;11.80;99.90
59025;DHT22;44806;48.008;13.666;2022-09-17T16:00:10;11.90;99.90
59025;DHT22;44806;48.008;13.666;2022-09-17T16:02:41;11.80;99.90
59025;DHT22;44806;48.008;13.666;2022-09-17T16:08:22;12.20;99.90
59025;DHT22;44806;48.008;13.666;2022-09-17T16:10:51;12.20;99.90
59025;DHT22;44806;48.008;13.666;2022-09-17T16:13:21;12.40;99.90
59025;DHT22;44806;48.008;13.666;2022-09-17T16:15:49;12.60;99.90
59025;DHT22;44806;48.008;13.666;2022-09-17T16:18:22;12.70;99.90
59025;DHT22;44806;48.008;13.666;2022-09-17T16:20:53;12.80;99.90
59025;DHT22;44806;48.008;13.666;2022-09-17T16:23:28;12.70;99.90